Terminal Aerodrome Forecast
Issued by NWS Wilmington, NC

Home | Current Version | Previous Version | Text Only | Print | Product List | Glossary On
Versions: 1 2 3 4 5 6 7 8 9 10 11 12 13 14 15 16 17
015
FTUS42 KILM 300244 AAA
TAFMYR
TAF AMD
KMYR 300244Z 3003/3024 16011G18KT P6SM VCSH SCT020 BKN050
     FM300400 12004KT 6SM -SHRA FEW007 SCT015 BKN025
     FM300700 13004KT P6SM VCSH BKN008 OVC015
     FM301100 14006KT 5SM -SHRA BR BKN015
     FM301900 19010KT 6SM -RA BR SCT015 OVC025
      AMD LTD TO CLD VIS AND WIND 3004/3011=

USA.gov is the U.S. government's official web portal to all federal, state and local government web resources and services.